createdAt,value
2023-04-07T00:02:22.414Z,37.33
2023-04-07T00:04:49.376Z,35.73
2023-04-07T00:07:16.258Z,37.03
2023-04-07T00:09:43.224Z,38.77
2023-04-07T00:12:10.435Z,37.57
2023-04-07T00:14:37.260Z,34.93
2023-04-07T00:17:04.105Z,36.03
2023-04-07T00:19:31.495Z,37.77
2023-04-07T00:21:58.286Z,33.17
2023-04-07T00:24:33.827Z,33.10
2023-04-07T00:27:01.646Z,36.93
2023-04-07T00:29:29.697Z,36.27
2023-04-07T00:31:56.713Z,37.73
2023-04-07T00:34:23.488Z,37.23
2023-04-07T00:36:52.444Z,37.50
2023-04-07T00:39:20.637Z,34.53
2023-04-07T00:41:47.935Z,35.43
2023-04-07T00:44:14.984Z,38.63
2023-04-07T00:46:42.028Z,39.70
2023-04-07T00:49:11.258Z,38.67
2023-04-07T00:51:38.543Z,36.53
2023-04-07T00:54:06.151Z,36.70
2023-04-07T00:56:33.041Z,35.53
2023-04-07T00:58:59.828Z,39.43
2023-04-07T01:01:42.918Z,38.00
2023-04-07T01:04:17.387Z,40.73
2023-04-07T01:06:50.522Z,37.37
2023-04-07T01:09:23.080Z,39.17
2023-04-07T01:12:23.658Z,38.90
2023-04-07T01:15:00.334Z,41.30
2023-04-07T01:17:28.810Z,40.50
2023-04-07T01:19:58.251Z,42.37
2023-04-07T01:22:32.564Z,42.80
2023-04-07T01:25:20.488Z,40.40
2023-04-07T01:28:03.591Z,41.27
2023-04-07T01:30:33.277Z,41.90
2023-04-07T01:33:01.872Z,43.23
2023-04-07T01:35:32.537Z,40.57
2023-04-07T01:38:00.491Z,41.17
2023-04-07T01:40:29.292Z,48.67
2023-04-07T01:42:57.906Z,47.67
2023-04-07T01:45:26.652Z,42.70
2023-04-07T01:47:55.325Z,47.33
2023-04-07T01:50:23.576Z,45.27
2023-04-07T01:52:50.817Z,44.60
2023-04-07T01:55:17.628Z,44.67
2023-04-07T01:57:44.572Z,47.97
2023-04-07T02:00:12.087Z,52.13
2023-04-07T02:02:44.559Z,46.17
2023-04-07T02:05:14.969Z,48.37
2023-04-07T02:07:49.784Z,61.07
2023-04-07T02:10:20.376Z,50.63
2023-04-07T02:12:47.768Z,50.13
2023-04-07T02:15:16.267Z,51.10
2023-04-07T02:17:47.725Z,53.80
2023-04-07T02:20:16.480Z,52.30
2023-04-07T02:22:44.968Z,50.83
2023-04-07T02:25:29.625Z,48.00
2023-04-07T02:27:58.814Z,48.63
2023-04-07T02:30:26.395Z,47.30
2023-04-07T02:32:53.942Z,51.83
2023-04-07T02:35:21.263Z,50.40
2023-04-07T02:37:48.719Z,60.17
2023-04-07T02:40:15.866Z,50.33
2023-04-07T02:42:42.996Z,52.90
2023-04-07T02:45:10.632Z,55.13
2023-04-07T02:47:38.579Z,50.27
2023-04-07T02:50:06.100Z,51.90
2023-04-07T02:52:32.896Z,54.70
2023-04-07T02:54:59.862Z,55.00
2023-04-07T02:57:26.668Z,53.20
2023-04-07T02:59:55.237Z,54.50
2023-04-07T03:02:22.265Z,53.67
2023-04-07T03:04:50.268Z,53.33
2023-04-07T03:07:17.164Z,51.63
2023-04-07T03:09:43.988Z,50.77
2023-04-07T03:12:11.710Z,49.07
2023-04-07T03:14:38.704Z,52.03
2023-04-07T03:17:05.916Z,54.13
2023-04-07T03:19:32.992Z,54.07
2023-04-07T03:21:59.879Z,52.37
2023-04-07T03:24:27.141Z,51.73
2023-04-07T03:26:53.947Z,52.37
2023-04-07T03:29:20.856Z,47.50
2023-04-07T03:31:47.698Z,52.57
2023-04-07T03:34:14.559Z,52.83
2023-04-07T03:36:41.487Z,50.30
2023-04-07T03:39:08.249Z,53.67
2023-04-07T03:41:35.414Z,50.63
2023-04-07T03:44:02.229Z,50.33
2023-04-07T03:46:29.126Z,54.80
2023-04-07T03:48:55.927Z,55.53
2023-04-07T03:51:22.705Z,53.87
2023-04-07T03:53:49.511Z,51.73
2023-04-07T03:56:17.138Z,56.67
2023-04-07T03:58:44.527Z,57.43
2023-04-07T04:01:11.388Z,57.73
2023-04-07T04:03:38.394Z,58.50
2023-04-07T04:06:05.922Z,56.63
2023-04-07T04:08:32.851Z,60.53
2023-04-07T04:10:59.642Z,60.30
2023-04-07T04:13:27.165Z,62.43
2023-04-07T04:15:55.530Z,57.23
2023-04-07T04:18:22.398Z,57.77
2023-04-07T04:20:49.257Z,62.17
2023-04-07T04:23:16.304Z,61.30
2023-04-07T04:25:43.184Z,57.07
2023-04-07T04:28:10.011Z,57.23
2023-04-07T04:30:36.947Z,65.00
2023-04-07T04:33:03.823Z,56.83
2023-04-07T04:35:30.652Z,58.50
2023-04-07T04:37:57.494Z,60.50
2023-04-07T04:40:24.285Z,56.23
2023-04-07T04:42:51.468Z,58.57
2023-04-07T04:45:18.473Z,57.33
2023-04-07T04:47:45.756Z,58.87
2023-04-07T04:50:13.046Z,56.30
2023-04-07T04:52:40.627Z,55.97
2023-04-07T04:55:08.252Z,59.43
2023-04-07T04:57:36.190Z,57.93
2023-04-07T05:00:04.410Z,57.87
2023-04-07T05:02:31.493Z,57.97
2023-04-07T05:04:58.611Z,57.23
2023-04-07T05:07:25.579Z,53.67
2023-04-07T05:09:52.477Z,56.57
2023-04-07T05:12:19.451Z,55.07
2023-04-07T05:14:46.311Z,56.97
2023-04-07T05:17:13.124Z,56.37
2023-04-07T05:19:39.972Z,63.33
2023-04-07T05:22:06.735Z,56.83
2023-04-07T05:24:33.588Z,57.93
2023-04-07T05:27:01.987Z,56.53
2023-04-07T05:29:28.822Z,61.50
2023-04-07T05:31:55.823Z,57.87
2023-04-07T05:34:22.873Z,52.23
2023-04-07T05:36:49.785Z,57.53
2023-04-07T05:39:16.574Z,58.80
2023-04-07T05:41:43.411Z,54.97
2023-04-07T05:44:10.324Z,56.17
2023-04-07T05:46:37.146Z,55.63
2023-04-07T05:49:13.288Z,55.03
2023-04-07T05:51:47.598Z,55.30
2023-04-07T05:54:15.809Z,57.57
2023-04-07T05:56:42.693Z,57.10
2023-04-07T05:59:10.027Z,57.27
2023-04-07T06:01:36.864Z,55.83
2023-04-07T06:04:04.366Z,55.70
2023-04-07T06:06:31.407Z,56.70
2023-04-07T06:08:58.451Z,55.90
2023-04-07T06:11:26.491Z,56.23
2023-04-07T06:13:53.351Z,58.63
2023-04-07T06:16:20.368Z,53.87
2023-04-07T06:18:47.572Z,54.60
2023-04-07T06:21:14.472Z,58.40
2023-04-07T06:23:41.241Z,55.50
2023-04-07T06:26:14.780Z,55.87
2023-04-07T06:28:41.720Z,55.40
2023-04-07T06:31:09.225Z,53.50
2023-04-07T06:33:36.210Z,53.67
2023-04-07T06:36:03.126Z,54.43
2023-04-07T06:38:30.119Z,51.40
2023-04-07T06:40:56.953Z,51.93
2023-04-07T06:43:25.362Z,54.23
2023-04-07T06:45:55.003Z,50.30
2023-04-07T06:48:22.234Z,53.80
2023-04-07T06:50:51.945Z,55.03
2023-04-07T06:53:19.139Z,55.93
2023-04-07T06:55:45.958Z,57.37
2023-04-07T06:58:12.824Z,54.90
2023-04-07T07:00:39.663Z,52.53
2023-04-07T07:03:08.189Z,58.27
2023-04-07T07:05:35.489Z,52.37
2023-04-07T07:08:02.318Z,50.77
2023-04-07T07:10:29.261Z,53.10
2023-04-07T07:12:56.131Z,50.30
2023-04-07T07:15:23.008Z,49.77
2023-04-07T07:17:50.045Z,47.87
2023-04-07T07:20:16.998Z,47.17
2023-04-07T07:22:47.833Z,50.20
2023-04-07T07:25:15.056Z,48.60
2023-04-07T07:27:41.916Z,50.20
2023-04-07T07:30:09.266Z,49.70
2023-04-07T07:32:37.177Z,45.40
2023-04-07T07:35:04.832Z,45.53
2023-04-07T07:37:31.862Z,47.30
2023-04-07T07:39:58.728Z,49.70
2023-04-07T07:42:25.571Z,50.23
2023-04-07T07:44:52.385Z,49.10
2023-04-07T07:47:19.240Z,46.53
2023-04-07T07:49:46.118Z,45.53
2023-04-07T07:52:13.017Z,47.70
2023-04-07T07:54:39.912Z,46.23
2023-04-07T07:57:06.758Z,44.30
2023-04-07T07:59:33.798Z,46.77
2023-04-07T08:02:00.983Z,44.70
2023-04-07T08:04:29.024Z,40.97
2023-04-07T08:06:56.138Z,42.07
2023-04-07T08:09:22.908Z,41.33
2023-04-07T08:11:49.995Z,44.73
2023-04-07T08:14:17.508Z,40.50
2023-04-07T08:16:48.264Z,39.10
2023-04-07T08:19:16.052Z,38.03
2023-04-07T08:21:42.981Z,38.57
2023-04-07T08:24:11.928Z,40.50
2023-04-07T08:26:38.821Z,34.70
2023-04-07T08:29:06.301Z,36.70
2023-04-07T08:31:33.839Z,40.37
2023-04-07T08:34:00.777Z,39.83
2023-04-07T08:36:29.109Z,37.07
2023-04-07T08:38:56.944Z,37.67
2023-04-07T08:41:38.239Z,39.37
2023-04-07T08:44:07.411Z,34.37
2023-04-07T08:46:35.297Z,34.60
2023-04-07T08:49:03.519Z,31.93
2023-04-07T08:51:32.326Z,35.23
2023-04-07T08:54:21.752Z,32.70
2023-04-07T08:56:48.814Z,35.20
2023-04-07T08:59:18.645Z,32.87
2023-04-07T09:01:50.482Z,30.50
2023-04-07T09:04:18.479Z,33.63
2023-04-07T09:06:45.470Z,30.17
2023-04-07T09:09:13.459Z,28.63
2023-04-07T09:11:42.839Z,29.37
2023-04-07T09:14:09.765Z,26.93
2023-04-07T09:16:37.537Z,30.07
2023-04-07T09:19:04.770Z,28.57
2023-04-07T09:22:08.398Z,28.63
2023-04-07T09:24:35.373Z,27.20
2023-04-07T09:27:17.515Z,24.40
2023-04-07T09:29:46.703Z,26.17
2023-04-07T09:32:33.949Z,28.20
2023-04-07T09:35:01.197Z,28.07
2023-04-07T09:37:27.977Z,30.57
2023-04-07T09:39:54.834Z,27.57
2023-04-07T09:42:22.418Z,29.63
2023-04-07T09:44:49.338Z,27.57
2023-04-07T09:47:16.235Z,30.47
2023-04-07T09:49:54.080Z,28.73
2023-04-07T09:52:26.946Z,31.30
2023-04-07T09:54:55.844Z,28.10
2023-04-07T09:57:23.764Z,25.23
2023-04-07T09:59:54.224Z,29.13
2023-04-07T10:02:25.073Z,28.30
2023-04-07T10:04:51.957Z,28.60
2023-04-07T10:07:19.556Z,26.90
2023-04-07T10:09:46.453Z,25.57
2023-04-07T10:12:15.018Z,29.10
2023-04-07T10:14:47.601Z,25.73
2023-04-07T10:17:19.276Z,30.60
2023-04-07T10:19:48.298Z,27.03
2023-04-07T10:22:16.657Z,26.37
2023-04-07T10:24:43.517Z,28.13
2023-04-07T10:27:14.762Z,22.23
2023-04-07T10:29:43.927Z,23.13
2023-04-07T10:32:12.382Z,22.77
2023-04-07T10:34:51.438Z,29.23
2023-04-07T10:37:21.589Z,27.03
2023-04-07T10:39:49.684Z,26.07
2023-04-07T10:42:41.560Z,25.20
2023-04-07T10:45:09.579Z,22.10
2023-04-07T10:47:59.973Z,24.93
2023-04-07T10:50:30.801Z,29.37
2023-04-07T10:53:09.671Z,28.57
2023-04-07T10:58:31.188Z,21.07
2023-04-07T11:01:02.044Z,21.67
2023-04-07T11:03:31.198Z,21.63
2023-04-07T11:06:05.975Z,23.17
2023-04-07T11:08:42.330Z,21.50
2023-04-07T11:11:11.663Z,23.10
2023-04-07T11:13:49.795Z,21.30
2023-04-07T11:16:19.016Z,26.23
2023-04-07T11:18:48.313Z,21.63
2023-04-07T11:21:19.469Z,20.43
2023-04-07T11:23:47.982Z,20.77
2023-04-07T11:26:16.183Z,21.93
2023-04-07T11:28:54.224Z,27.23
2023-04-07T11:31:29.310Z,19.97
2023-04-07T11:34:04.443Z,20.73
2023-04-07T11:36:34.392Z,21.53
2023-04-07T11:39:02.777Z,24.33
2023-04-07T11:41:31.685Z,22.87
2023-04-07T11:44:12.106Z,25.23
2023-04-07T11:47:05.732Z,22.53
2023-04-07T11:49:32.947Z,27.40
2023-04-07T11:52:07.402Z,27.33
2023-04-07T11:54:44.397Z,25.80
2023-04-07T11:57:13.004Z,24.43
2023-04-07T11:59:41.464Z,23.90
2023-04-07T12:02:08.633Z,26.57
2023-04-07T12:04:37.899Z,22.90
2023-04-07T12:07:09.682Z,33.33
2023-04-07T12:09:37.757Z,22.37
2023-04-07T12:12:07.145Z,20.43
2023-04-07T12:14:34.716Z,20.97
2023-04-07T12:17:05.155Z,20.00
2023-04-07T12:19:36.191Z,19.80
2023-04-07T12:22:03.841Z,18.83
2023-04-07T12:24:32.869Z,22.17
2023-04-07T12:27:00.240Z,19.40
2023-04-07T12:29:27.187Z,20.07
2023-04-07T12:31:54.323Z,14.63
2023-04-07T12:34:21.565Z,8.90
2023-04-07T12:36:48.670Z,8.53
2023-04-07T12:39:16.544Z,5.97
2023-04-07T12:41:45.406Z,8.07
2023-04-07T12:44:12.843Z,3.70
2023-04-07T12:46:39.748Z,3.67
2023-04-07T12:49:06.670Z,10.27
2023-04-07T12:51:33.838Z,3.57
2023-04-07T12:54:00.906Z,3.17
2023-04-07T12:56:28.836Z,3.90
2023-04-07T12:59:10.294Z,4.47
2023-04-07T13:01:38.114Z,3.73
2023-04-07T13:04:05.219Z,2.87
2023-04-07T13:06:32.493Z,2.50
2023-04-07T13:09:00.578Z,3.70
2023-04-07T13:11:27.555Z,2.77
2023-04-07T13:13:56.505Z,3.83
2023-04-07T13:16:24.308Z,7.33
2023-04-07T13:18:52.069Z,4.03
2023-04-07T13:21:43.953Z,3.40
2023-04-07T13:24:06.159Z,3.60
2023-04-07T13:26:45.376Z,6.70
2023-04-07T13:29:12.328Z,4.57
2023-04-07T13:31:39.209Z,3.57
2023-04-07T13:34:06.106Z,3.63
2023-04-07T13:36:33.611Z,3.43
2023-04-07T13:39:02.236Z,4.00
2023-04-07T13:41:29.131Z,5.77
2023-04-07T13:43:56.588Z,4.17
2023-04-07T13:46:27.757Z,4.10
2023-04-07T13:48:55.481Z,5.17
2023-04-07T13:51:22.894Z,3.70
2023-04-07T13:53:50.014Z,4.37
2023-04-07T13:56:17.135Z,3.13
2023-04-07T13:58:44.074Z,4.60
2023-04-07T14:01:12.609Z,7.70
2023-04-07T14:03:42.997Z,3.60
2023-04-07T14:06:10.847Z,4.37
2023-04-07T14:08:37.703Z,3.80
2023-04-07T14:11:04.536Z,7.17
2023-04-07T14:13:31.519Z,5.00
2023-04-07T14:15:58.530Z,4.70
2023-04-07T14:18:28.005Z,4.37
2023-04-07T14:20:54.879Z,7.37
2023-04-07T14:23:36.594Z,3.53
2023-04-07T14:26:04.782Z,3.30
2023-04-07T14:28:31.803Z,3.60
2023-04-07T14:30:58.671Z,3.07
2023-04-07T14:33:29.755Z,3.67
2023-04-07T14:35:57.643Z,5.30
2023-04-07T14:38:25.929Z,3.47
2023-04-07T14:40:53.086Z,9.00
2023-04-07T14:43:20.939Z,5.23
2023-04-07T14:45:48.121Z,5.47
2023-04-07T14:48:18.592Z,4.27
2023-04-07T14:50:46.150Z,6.03
2023-04-07T14:53:18.840Z,5.47
2023-04-07T14:55:45.892Z,4.47
2023-04-07T14:58:12.746Z,3.83
2023-04-07T15:00:39.614Z,7.13
2023-04-07T15:03:06.716Z,6.60
2023-04-07T15:05:33.894Z,4.23
2023-04-07T15:08:01.058Z,3.73
2023-04-07T15:10:27.904Z,5.03
2023-04-07T15:12:54.695Z,5.70
2023-04-07T15:15:21.640Z,4.87
2023-04-07T15:17:48.503Z,6.07
2023-04-07T15:20:15.338Z,4.30
2023-04-07T15:22:42.291Z,5.33
2023-04-07T15:25:09.196Z,9.40
2023-04-07T15:27:36.003Z,5.27
2023-04-07T15:30:07.470Z,7.23
2023-04-07T15:32:37.496Z,6.30
2023-04-07T15:35:04.738Z,7.37
2023-04-07T15:37:31.689Z,6.33
2023-04-07T15:39:58.458Z,5.93
2023-04-07T15:42:25.291Z,5.33
2023-04-07T15:44:52.092Z,5.90
2023-04-07T15:47:18.921Z,5.63
2023-04-07T15:49:49.750Z,6.57
2023-04-07T15:52:19.768Z,6.43
2023-04-07T15:54:46.563Z,4.73
2023-04-07T15:57:17.217Z,9.67
2023-04-07T15:59:44.417Z,6.90
2023-04-07T16:02:13.035Z,7.00
2023-04-07T16:04:41.341Z,4.53
2023-04-07T16:07:08.533Z,6.53
2023-04-07T16:09:35.731Z,4.77
2023-04-07T16:12:02.719Z,3.47
2023-04-07T16:14:31.275Z,4.00
2023-04-07T16:16:59.377Z,4.13
2023-04-07T16:19:30.302Z,2.93
2023-04-07T16:21:57.392Z,3.67
2023-04-07T16:24:24.181Z,5.17
2023-04-07T16:26:52.456Z,4.97
2023-04-07T16:29:20.502Z,8.30
2023-04-07T16:31:47.751Z,4.43
2023-04-07T16:34:14.649Z,4.73
2023-04-07T16:36:42.832Z,4.90
2023-04-07T16:39:12.710Z,4.43
2023-04-07T16:41:39.479Z,4.40
2023-04-07T16:44:07.149Z,4.60
2023-04-07T16:46:34.058Z,4.57
2023-04-07T16:49:03.275Z,3.97
2023-04-07T16:51:30.312Z,5.20
2023-04-07T16:53:57.178Z,7.07
2023-04-07T16:56:24.553Z,4.53
2023-04-07T16:58:51.710Z,4.30
2023-04-07T17:01:19.139Z,4.37
2023-04-07T17:03:48.781Z,4.53
2023-04-07T17:06:16.613Z,3.37
2023-04-07T17:08:46.288Z,4.40
2023-04-07T17:11:13.696Z,3.63
2023-04-07T17:13:41.106Z,4.60
2023-04-07T17:16:15.407Z,5.23
2023-04-07T17:18:42.300Z,4.97
2023-04-07T17:21:09.180Z,6.97
2023-04-07T17:23:36.824Z,4.47
2023-04-07T17:26:03.734Z,4.60
2023-04-07T17:28:30.721Z,4.77
2023-04-07T17:30:58.627Z,5.53
2023-04-07T17:33:26.176Z,5.37
2023-04-07T17:35:53.784Z,5.07
2023-04-07T17:38:20.646Z,6.87
2023-04-07T17:40:47.431Z,5.13
2023-04-07T17:43:14.340Z,4.33
2023-04-07T17:45:41.329Z,6.87
2023-04-07T17:48:12.100Z,6.17
2023-04-07T17:50:39.193Z,6.33
2023-04-07T17:53:06.645Z,7.70
2023-04-07T17:55:33.898Z,6.70
2023-04-07T17:58:02.075Z,7.57
2023-04-07T18:00:33.900Z,7.83
2023-04-07T18:03:01.597Z,7.67
2023-04-07T18:05:35.938Z,7.40
2023-04-07T18:08:02.974Z,7.93
2023-04-07T18:10:30.121Z,8.00
2023-04-07T18:12:57.609Z,7.07
2023-04-07T18:15:24.448Z,6.23
2023-04-07T18:17:53.151Z,7.03
2023-04-07T18:20:23.556Z,6.33
2023-04-07T18:22:54.812Z,6.43
2023-04-07T18:25:22.677Z,5.20
2023-04-07T18:27:49.552Z,5.80
2023-04-07T18:30:16.756Z,6.23
2023-04-07T18:32:44.497Z,5.50
2023-04-07T18:35:11.904Z,4.60
2023-04-07T18:37:38.704Z,8.17
2023-04-07T18:40:06.325Z,4.90
2023-04-07T18:42:33.170Z,5.20
2023-04-07T18:45:00.040Z,6.53
2023-04-07T18:47:28.857Z,8.00
2023-04-07T18:49:58.138Z,9.30
2023-04-07T18:52:26.101Z,7.40
2023-04-07T18:54:53.158Z,6.83
2023-04-07T18:57:20.141Z,6.83
2023-04-07T18:59:47.002Z,7.00
2023-04-07T19:02:13.901Z,8.43
2023-04-07T19:04:41.246Z,6.90
2023-04-07T19:07:08.259Z,7.57
2023-04-07T19:09:35.107Z,6.60
2023-04-07T19:12:01.913Z,7.33
2023-04-07T19:14:28.817Z,9.27
2023-04-07T19:16:55.665Z,8.33
2023-04-07T19:19:26.274Z,7.77
2023-04-07T19:21:53.267Z,8.87
2023-04-07T19:24:20.329Z,8.47
2023-04-07T19:26:47.429Z,8.57
2023-04-07T19:29:14.289Z,9.90
2023-04-07T19:31:41.869Z,8.80
2023-04-07T19:34:08.853Z,10.00
2023-04-07T19:36:35.745Z,10.57
2023-04-07T19:39:04.656Z,10.13
2023-04-07T19:41:31.518Z,11.30
2023-04-07T19:43:59.415Z,9.57
2023-04-07T19:46:26.900Z,11.23
2023-04-07T19:48:53.791Z,9.87
2023-04-07T19:51:20.976Z,9.57
2023-04-07T19:53:48.013Z,9.70
2023-04-07T19:56:18.415Z,10.40
2023-04-07T19:58:45.355Z,9.37
2023-04-07T20:01:17.000Z,6.17
2023-04-07T20:03:44.994Z,6.57
2023-04-07T20:06:14.581Z,5.77
2023-04-07T20:08:42.103Z,5.67
2023-04-07T20:11:13.959Z,6.20
2023-04-07T20:13:41.883Z,5.47
2023-04-07T20:16:09.094Z,5.00
2023-04-07T20:18:36.153Z,6.10
2023-04-07T20:21:05.895Z,5.90
2023-04-07T20:23:33.777Z,5.47
2023-04-07T20:26:02.221Z,4.90
2023-04-07T20:28:29.176Z,6.50
2023-04-07T20:30:56.146Z,4.50
2023-04-07T20:33:22.995Z,5.50
2023-04-07T20:35:49.819Z,4.83
2023-04-07T20:38:16.642Z,6.47
2023-04-07T20:40:43.486Z,5.60
2023-04-07T20:43:10.498Z,6.33
2023-04-07T20:45:37.324Z,6.93
2023-04-07T20:48:04.692Z,6.03
2023-04-07T20:50:33.280Z,8.60
2023-04-07T20:53:00.145Z,7.37
2023-04-07T20:55:27.282Z,6.13
2023-04-07T20:57:54.708Z,8.20
2023-04-07T21:00:21.678Z,9.30
2023-04-07T21:02:49.321Z,8.93
2023-04-07T21:05:16.342Z,7.73
2023-04-07T21:07:43.161Z,12.10
2023-04-07T21:10:10.306Z,7.77
2023-04-07T21:12:38.293Z,9.83
2023-04-07T21:15:06.772Z,8.00
2023-04-07T21:17:33.733Z,7.50
2023-04-07T21:20:00.627Z,8.73
2023-04-07T21:22:28.128Z,8.20
2023-04-07T21:24:56.182Z,8.57
2023-04-07T21:27:24.180Z,7.87
2023-04-07T21:29:51.318Z,8.87
2023-04-07T21:32:18.707Z,6.97
2023-04-07T21:34:45.580Z,8.13
2023-04-07T21:37:12.412Z,8.20
2023-04-07T21:39:39.795Z,8.13
2023-04-07T21:42:06.738Z,10.20
2023-04-07T21:44:33.647Z,7.70
2023-04-07T21:47:00.505Z,7.53
2023-04-07T21:49:27.606Z,8.53
2023-04-07T21:51:54.615Z,7.73
2023-04-07T21:54:21.631Z,10.03
2023-04-07T21:56:49.282Z,7.17
2023-04-07T21:59:19.909Z,8.03
2023-04-07T22:01:47.449Z,8.47
2023-04-07T22:04:14.580Z,7.30
2023-04-07T22:06:41.493Z,8.20
2023-04-07T22:09:09.118Z,7.53
2023-04-07T22:11:35.941Z,6.83
2023-04-07T22:14:02.768Z,8.17
2023-04-07T22:16:33.809Z,6.93
2023-04-07T22:19:09.377Z,7.97
2023-04-07T22:21:36.839Z,7.73
2023-04-07T22:24:03.767Z,8.77
2023-04-07T22:26:31.771Z,11.07
2023-04-07T22:29:02.544Z,9.97
2023-04-07T22:31:29.795Z,9.77
2023-04-07T22:33:56.845Z,9.80
2023-04-07T22:37:01.019Z,13.20
2023-04-07T22:39:27.946Z,10.00
2023-04-07T22:41:57.869Z,12.30
2023-04-07T22:44:24.705Z,13.23
2023-04-07T22:46:52.052Z,12.30
2023-04-07T22:49:18.877Z,12.37
2023-04-07T22:51:49.066Z,11.97
2023-04-07T22:54:16.375Z,13.20
2023-04-07T22:56:48.490Z,12.27
2023-04-07T22:59:15.875Z,11.63
2023-04-07T23:01:42.960Z,12.13
2023-04-07T23:04:09.822Z,10.67
2023-04-07T23:06:43.888Z,11.27
2023-04-07T23:09:29.058Z,12.37
2023-04-07T23:11:57.245Z,12.30
2023-04-07T23:16:49.538Z,15.53
2023-04-07T23:19:19.714Z,13.53
2023-04-07T23:21:49.460Z,12.60
2023-04-07T23:24:16.469Z,14.07
2023-04-07T23:26:43.474Z,14.73
2023-04-07T23:29:10.427Z,14.20
2023-04-07T23:31:37.331Z,16.87
2023-04-07T23:34:04.805Z,17.20
2023-04-07T23:36:31.699Z,19.27
2023-04-07T23:38:58.697Z,16.67
2023-04-07T23:41:25.613Z,17.57
2023-04-07T23:43:52.398Z,18.17
2023-04-07T23:46:19.355Z,17.20
2023-04-07T23:48:46.349Z,13.47
2023-04-07T23:51:13.190Z,13.80
2023-04-07T23:53:40.181Z,13.50
2023-04-07T23:56:07.860Z,14.67
2023-04-07T23:58:34.734Z,13.47
